Time;durP1;ratioP1;P1;durP2;ratioP2;P2;SDS_P1;SDS_P2;PMS_P1;PMS_P2;Temp;Humidity;BMP_temperature;BMP_pressure;BME280_temperature;BME280_humidity;BME280_pressure;Samples;Min_cycle;Max_cycle;Signal;HPM_P1;HPM_P2
2022/07/11 00:01:41;;;;;;;12.00;11.40;;;;;;;20.09;100.00;102374.36;1997328;71;31414;-72
2022/07/11 00:07:25;;;;;;;12.70;11.90;;;;;;;20.09;100.00;102381.41;1991727;71;30868;-74
2022/07/11 00:13:09;;;;;;;12.30;11.80;;;;;;;19.73;100.00;102375.59;1991771;71;30823;-74
2022/07/11 00:18:53;;;;;;;11.30;10.90;;;;;;;19.69;100.00;102378.77;2011806;71;30864;-74
2022/07/11 00:24:38;;;;;;;12.23;11.70;;;;;;;19.66;100.00;102377.42;2004457;71;30869;-74
2022/07/11 00:30:22;;;;;;;17.53;16.57;;;;;;;19.57;100.00;102384.08;2006117;71;30909;-74
2022/07/11 00:36:07;;;;;;;19.80;18.90;;;;;;;18.59;100.00;102391.48;2015043;71;30967;-74
2022/07/11 00:41:52;;;;;;;20.53;19.53;;;;;;;18.44;100.00;102392.47;2013623;71;31042;-74
2022/07/11 00:47:36;;;;;;;22.30;21.20;;;;;;;18.37;100.00;102384.14;2006565;71;30874;-74
2022/07/11 00:53:23;;;;;;;21.07;20.13;;;;;;;18.12;100.00;102379.66;1994867;71;30960;-74
2022/07/11 00:59:09;;;;;;;22.47;21.37;;;;;;;18.12;100.00;102381.06;2013154;71;30954;-74
2022/07/11 01:04:55;;;;;;;21.77;20.77;;;;;;;18.30;100.00;102373.26;2009486;71;30993;-74
2022/07/11 01:10:39;;;;;;;21.87;20.87;;;;;;;18.92;100.00;102373.55;1997445;71;31435;-74
2022/07/11 01:16:23;;;;;;;23.43;22.23;;;;;;;18.45;100.00;102365.17;1997296;71;31313;-74
2022/07/11 01:22:09;;;;;;;22.90;21.70;;;;;;;18.41;100.00;102356.50;2014798;71;30950;-74
2022/07/11 01:27:54;;;;;;;22.10;21.10;;;;;;;18.48;100.00;102360.38;2010101;71;30855;-74
2022/07/11 01:33:38;;;;;;;26.63;25.13;;;;;;;17.85;100.00;102368.98;2016883;71;30976;-72
2022/07/11 01:39:23;;;;;;;30.77;28.87;;;;;;;17.69;100.00;102364.66;2017124;71;31374;-74
2022/07/11 01:45:09;;;;;;;33.50;31.50;;;;;;;17.45;100.00;102371.62;2018613;71;30876;-74
2022/07/11 01:50:54;;;;;;;35.77;33.67;;;;;;;17.32;100.00;102370.05;2014974;71;30956;-74
2022/07/11 01:56:39;;;;;;;38.07;35.97;;;;;;;17.27;100.00;102368.95;2008321;71;30857;-74
2022/07/11 02:02:23;;;;;;;41.20;38.90;;;;;;;16.86;100.00;102370.36;2016864;71;32963;-74
2022/07/11 02:08:14;;;;;;;40.10;37.70;;;;;;;16.95;100.00;102366.38;2006146;71;33520;-73
2022/07/11 02:14:02;;;;;;;38.80;36.30;;;;;;;17.57;100.00;102347.33;1995326;71;30822;-74
2022/07/11 02:19:46;;;;;;;37.30;35.10;;;;;;;17.37;100.00;102353.96;1997110;71;33458;-74
2022/07/11 02:25:31;;;;;;;37.57;35.47;;;;;;;17.60;100.00;102348.17;2001983;71;32947;-74
2022/07/11 02:31:16;;;;;;;36.80;34.70;;;;;;;17.54;100.00;102356.36;2014709;71;30941;-73
2022/07/11 02:37:00;;;;;;;36.07;33.97;;;;;;;17.44;100.00;102360.66;2000116;71;31424;-74
2022/07/11 02:42:45;;;;;;;38.27;35.97;;;;;;;17.37;100.00;102353.96;2004217;71;32813;-74
2022/07/11 02:48:29;;;;;;;40.93;38.53;;;;;;;17.32;100.00;102354.03;2018235;71;32942;-73
2022/07/11 02:54:14;;;;;;;40.47;38.17;;;;;;;17.38;100.00;102339.35;2013767;71;33304;-74
2022/07/11 02:59:58;;;;;;;38.70;36.50;;;;;;;17.40;100.00;102328.67;2000518;71;33489;-74
2022/07/11 03:05:44;;;;;;;38.97;36.77;;;;;;;17.72;100.00;102340.17;2002761;71;33312;-73
2022/07/11 03:11:28;;;;;;;38.17;35.90;;;;;;;17.23;100.00;102348.20;2007904;71;33455;-74
2022/07/11 03:17:12;;;;;;;39.30;36.90;;;;;;;17.47;100.00;102342.64;2009660;71;32932;-74
2022/07/11 03:22:56;;;;;;;40.23;37.93;;;;;;;17.40;100.00;102339.91;2015009;71;30972;-74
2022/07/11 03:28:40;;;;;;;42.13;39.63;;;;;;;17.21;100.00;102360.28;2016802;71;30896;-74
2022/07/11 03:34:25;;;;;;;42.07;39.67;;;;;;;17.27;100.00;102359.69;2008273;71;33521;-72
2022/07/11 03:40:12;;;;;;;45.67;42.67;;;;;;;16.87;100.00;102362.78;2014867;71;32937;-74
2022/07/11 03:45:56;;;;;;;44.20;41.60;;;;;;;17.10;100.00;102355.05;2011616;71;31061;-74
2022/07/11 03:51:40;;;;;;;42.17;39.77;;;;;;;17.47;100.00;102344.61;2000811;71;33478;-74
2022/07/11 03:57:26;;;;;;;43.07;40.47;;;;;;;17.43;100.00;102333.13;2008286;71;32930;-74
2022/07/11 04:03:10;;;;;;;40.77;38.37;;;;;;;17.72;100.00;102321.34;1841354;78;33818;-74
2022/07/11 04:08:54;;;;;;;39.63;37.13;;;;;;;17.54;100.00;102326.27;2011307;71;33017;-74
2022/07/11 04:14:39;;;;;;;39.97;37.77;;;;;;;17.65;100.00;102314.41;1999124;71;33414;-74
2022/07/11 04:20:23;;;;;;;41.10;38.70;;;;;;;17.72;100.00;102321.34;2011950;71;32825;-74
2022/07/11 04:26:07;;;;;;;39.77;37.47;;;;;;;17.93;100.00;102316.31;2006505;71;32963;-74
2022/07/11 04:31:52;;;;;;;40.30;38.10;;;;;;;17.75;100.00;102315.70;2009442;71;32961;-74
2022/07/11 04:37:36;;;;;;;41.03;38.70;;;;;;;17.69;100.00;102312.67;2008215;71;31507;-74
2022/07/11 04:43:22;;;;;;;40.83;38.33;;;;;;;17.72;100.00;102303.07;1995589;71;31402;-74
2022/07/11 04:49:07;;;;;;;38.10;35.90;;;;;;;17.87;100.00;102297.85;2004285;71;30941;-74
2022/07/11 04:54:52;;;;;;;37.80;35.60;;;;;;;17.65;100.00;102309.62;2014852;71;32917;-74
2022/07/11 05:00:37;;;;;;;37.13;34.97;;;;;;;17.71;100.00;102301.98;2015227;71;32821;-74
2022/07/11 05:06:26;;;;;;;36.20;34.10;;;;;;;18.00;100.00;102303.32;1991531;71;30870;-74
2022/07/11 05:12:11;;;;;;;33.27;31.30;;;;;;;18.13;100.00;102310.47;1995390;71;30943;-74
2022/07/11 05:17:55;;;;;;;32.27;30.47;;;;;;;17.99;100.00;102310.91;2004533;71;32903;-74
2022/07/11 05:23:42;;;;;;;32.37;30.57;;;;;;;18.25;100.00;102321.27;1995522;71;32809;-74
2022/07/11 05:29:29;;;;;;;32.33;30.43;;;;;;;18.38;100.00;102328.14;2009555;71;33366;-73
2022/07/11 05:35:13;;;;;;;32.13;30.33;;;;;;;18.35;100.00;102329.59;1991743;71;33286;-74
2022/07/11 05:44:06;;;;;;;30.13;28.33;;;;;;;18.60;100.00;102315.20;2038489;69;33152;-72
2022/07/11 05:49:53;;;;;;;30.53;28.93;;;;;;;18.64;100.00;102325.27;2016651;71;30947;-74
2022/07/11 05:55:38;;;;;;;32.97;31.03;;;;;;;18.55;100.00;102328.50;2015188;71;30945;-72
2022/07/11 06:01:25;;;;;;;29.87;28.07;;;;;;;18.80;100.00;102327.28;1995388;71;30848;-73
2022/07/11 06:08:40;;;;;;;29.07;27.40;;;;;;;19.05;100.00;102331.94;2009388;71;30862;-73
2022/07/11 06:12:59;;;;;;;28.93;27.23;;;;;;;19.14;100.00;102331.23;2003926;71;30875;-73
2022/07/11 06:18:46;;;;;;;28.37;26.30;;;;;;;19.39;100.00;102335.03;1994902;71;30863;-73
2022/07/11 06:24:35;;;;;;;29.60;28.00;;;;;;;19.43;100.00;102340.34;2005904;71;31449;-74
2022/07/11 06:30:26;;;;;;;31.53;29.73;;;;;;;19.39;100.00;102343.48;2011742;71;30862;-73
2022/07/11 06:36:10;;;;;;;28.50;26.87;;;;;;;19.49;100.00;102349.82;2018701;71;31493;-74
2022/07/11 06:41:55;;;;;;;29.20;27.33;;;;;;;19.59;100.00;102346.56;2016939;71;31435;-73
2022/07/11 06:47:39;;;;;;;32.17;30.03;;;;;;;19.79;100.00;102360.27;2015323;71;31049;-73
2022/07/11 06:53:25;;;;;;;27.27;25.63;;;;;;;20.09;100.00;102354.03;2016874;71;31505;-74
2022/07/11 06:59:09;;;;;;;26.13;24.70;;;;;;;20.29;100.00;102355.05;2014926;71;30954;-73
2022/07/11 07:04:54;;;;;;;27.80;26.17;;;;;;;20.50;100.00;102352.62;2013525;71;31488;-73
2022/07/11 07:10:38;;;;;;;28.70;27.00;;;;;;;20.62;100.00;102355.77;2018700;71;30953;-74
2022/07/11 07:16:23;;;;;;;25.00;23.60;;;;;;;20.90;100.00;102353.11;1995543;71;31383;-72
2022/07/11 07:22:08;;;;;;;24.50;23.17;;;;;;;21.15;100.00;102356.50;2001068;71;30971;-72
2022/07/11 07:27:52;;;;;;;22.90;21.40;;;;;;;21.88;100.00;102353.73;2004216;71;30961;-73
2022/07/11 07:33:37;;;;;;;20.57;19.47;;;;;;;22.05;100.00;102355.26;2009770;71;30933;-75
2022/07/11 07:39:22;;;;;;;19.57;18.57;;;;;;;21.93;100.00;102355.87;2011971;71;33294;-76
2022/07/11 07:45:07;;;;;;;18.30;17.30;;;;;;;22.64;100.00;102345.27;2010073;70;30886;-76
2022/07/11 07:50:53;;;;;;;17.70;16.70;;;;;;;22.88;100.00;102347.09;2016954;71;33457;-73
2022/07/11 07:56:37;;;;;;;16.60;15.60;;;;;;;23.16;100.00;102351.83;1995696;71;30840;-76
2022/07/11 08:02:22;;;;;;;16.35;15.45;;;;;;;23.35;100.00;102345.82;2014900;71;30969;-76
2022/07/11 08:08:07;;;;;;;15.60;14.80;;;;;;;23.49;100.00;102344.48;2006411;71;30845;-76
2022/07/11 08:13:51;;;;;;;15.32;14.47;;;;;;;23.70;100.00;102338.11;2006356;71;31292;-75
2022/07/11 08:19:36;;;;;;;14.28;13.58;;;;;;;23.83;100.00;102342.13;2013438;71;30901;-76
2022/07/11 08:25:21;;;;;;;13.60;12.75;;;;;;;24.26;100.00;102339.13;2013399;71;30886;-76
2022/07/11 08:31:06;;;;;;;13.83;12.90;;;;;;;24.17;100.00;102335.53;2004715;71;30888;-76
2022/07/11 08:36:51;;;;;;;12.82;12.13;;;;;;;25.05;100.00;102338.30;2013479;71;30894;-75
2022/07/11 08:42:39;;;;;;;14.70;13.70;;;;;;;24.81;100.00;102334.70;2005918;71;30960;-76
2022/07/11 08:48:27;;;;;;;14.73;13.55;;;;;;;24.85;100.00;102333.42;2006402;71;30920;-74
2022/07/11 08:54:12;;;;;;;13.68;12.93;;;;;;;24.85;100.00;102336.26;1998873;71;31024;-74
2022/07/11 09:00:00;;;;;;;14.90;13.75;;;;;;;25.50;100.00;102336.92;2011411;71;30949;-76
2022/07/11 09:05:46;;;;;;;14.18;13.30;;;;;;;24.57;100.00;102330.84;2002366;71;31085;-76
2022/07/11 09:11:32;;;;;;;14.73;13.80;;;;;;;25.06;100.00;102329.17;2016694;71;30908;-74
2022/07/11 09:17:26;;;;;;;14.65;13.75;;;;;;;24.76;100.00;102325.55;2006399;71;30919;-76
2022/07/11 09:29:25;;;;;;;13.58;12.73;;;;;;;24.94;100.00;102315.73;2016846;71;30908;-73
2022/07/11 09:35:12;;;;;;;13.83;13.03;;;;;;;24.80;100.00;102313.14;2009618;71;31458;-76
2022/07/11 09:41:01;;;;;;;12.88;12.05;;;;;;;24.92;100.00;102317.49;2016683;71;30978;-76
2022/07/11 09:46:47;;;;;;;13.00;12.28;;;;;;;24.77;100.00;102308.73;2006032;71;31453;-76
2022/07/11 09:52:32;;;;;;;12.90;12.20;;;;;;;24.79;100.00;102303.52;1997163;71;30830;-75
2022/07/11 09:58:21;;;;;;;12.53;11.90;;;;;;;26.10;100.00;102296.36;2014927;71;30905;-75
2022/07/11 10:04:09;;;;;;;12.80;12.10;;;;;;;25.78;100.00;102295.29;1995096;71;31417;-76
2022/07/11 10:09:55;;;;;;;12.93;12.23;;;;;;;25.45;100.00;102294.48;1995279;71;30893;-77
2022/07/11 10:15:44;;;;;;;12.68;11.90;;;;;;;25.05;100.00;102291.37;2004505;71;30881;-76
2022/07/11 10:21:34;;;;;;;12.05;11.50;;;;;;;25.44;100.00;102286.28;1995285;71;30951;-77
2022/07/11 10:24:09;;;;;;;12.15;11.55;;;;;;;25.39;100.00;102283.91;1962102;72;24155;-77
2022/07/11 10:26:43;;;;;;;12.55;11.85;;;;;;;25.99;100.00;102276.67;1976577;72;24249;-75
2022/07/11 10:29:17;;;;;;;12.47;11.78;;;;;;;25.62;100.00;102288.63;1967875;72;24256;-74
2022/07/11 10:35:19;;;;;;;12.37;11.78;;;;;;;25.60;100.00;102277.34;2017040;71;30896;-77
2022/07/11 10:41:05;;;;;;;12.20;11.70;;;;;;;26.75;100.00;102274.44;1995579;71;30834;-78
2022/07/11 10:46:53;;;;;;;12.20;11.60;;;;;;;26.45;100.00;102282.47;1995053;71;30954;-77
2022/07/11 10:52:44;;;;;;;12.47;11.78;;;;;;;25.98;100.00;102282.71;1991745;71;30912;-74
2022/07/11 10:58:44;;;;;;;12.13;11.33;;;;;;;25.53;100.00;102285.60;1995029;71;30961;-73
2022/07/11 11:04:47;;;;;;;11.53;10.93;;;;;;;26.12;100.00;102274.06;2013541;71;30869;-74
2022/07/11 11:11:06;;;;;;;11.68;11.08;;;;;;;26.47;100.00;102254.45;2006386;71;30822;-74
2022/07/11 11:16:53;;;;;;;11.35;10.75;;;;;;;27.25;100.00;102246.83;2011920;71;30811;-74
2022/07/11 11:23:13;;;;;;;11.68;10.98;;;;;;;26.10;100.00;102257.91;2014173;71;31778;-77
2022/07/11 11:29:01;;;;;;;12.07;11.40;;;;;;;25.97;100.00;102255.44;2013475;71;31336;-74
2022/07/11 11:34:47;;;;;;;11.68;11.18;;;;;;;26.85;100.00;102243.20;2011691;71;30899;-76
2022/07/11 11:40:32;;;;;;;12.90;12.20;;;;;;;26.66;100.00;102246.67;2015049;71;31912;-77
2022/07/11 11:46:17;;;;;;;12.33;11.65;;;;;;;25.95;100.00;102244.98;2016778;71;30931;-77
2022/07/11 11:52:01;;;;;;;13.30;12.50;;;;;;;27.16;100.00;102231.30;2004730;71;31319;-77
2022/07/11 11:57:46;;;;;;;12.15;11.45;;;;;;;27.09;100.00;102231.67;2013741;71;30939;-75
2022/07/11 12:03:50;;;;;;;14.53;13.72;;;;;;;26.36;100.00;102236.18;2018792;71;32397;-76
2022/07/11 12:09:50;;;;;;;12.05;11.43;;;;;;;27.11;100.00;102216.46;2013492;71;31850;-76
2022/07/11 12:16:39;;;;;;;13.62;12.82;;;;;;;27.44;100.00;102218.98;2008276;71;30939;-75
2022/07/11 12:21:24;;;;;;;12.68;12.07;;;;;;;26.17;100.00;102218.28;2011786;71;31018;-78
2022/07/11 12:27:09;;;;;;;12.20;11.70;;;;;;;26.70;100.00;102216.25;1999259;71;30829;-76
2022/07/11 12:33:12;;;;;;;18.42;17.70;;;;;;;27.93;100.00;102213.16;1958153;71;31055;-77
2022/07/11 12:39:11;;;;;;;11.68;11.08;;;;;;;27.55;100.00;102212.41;2004196;71;30911;-78
2022/07/11 12:45:07;;;;;;;11.75;11.25;;;;;;;27.51;100.00;102214.31;2009881;71;30990;-75
2022/07/11 12:50:47;;;;;;;12.80;12.13;;;;;;;26.61;100.00;102219.87;1997271;70;28518;-77
2022/07/11 12:56:33;;;;;;;12.95;12.13;;;;;;;26.78;100.00;102208.75;1985747;71;30875;-77
2022/07/11 13:02:18;;;;;;;11.83;11.22;;;;;;;27.34;100.00;102208.12;2009465;71;31871;-77
2022/07/11 13:20:17;;;;;;;12.28;11.57;;;;;;;26.97;100.00;102199.77;2000442;71;31031;-77
2022/07/11 13:26:02;;;;;;;11.63;10.80;;;;;;;26.09;100.00;102203.58;2018687;71;31997;-75
2022/07/11 13:31:47;;;;;;;11.48;10.98;;;;;;;25.83;100.00;102191.73;2006144;70;32933;-76
2022/07/11 13:37:31;;;;;;;11.22;10.72;;;;;;;28.06;100.00;102178.16;2017367;71;31419;-77
2022/07/11 13:43:17;;;;;;;11.00;10.50;;;;;;;27.54;100.00;102182.19;1995603;71;31017;-76
2022/07/11 13:49:02;;;;;;;11.20;10.80;;;;;;;26.79;100.00;102179.02;2004134;71;31941;-75
2022/07/11 13:54:47;;;;;;;12.15;11.57;;;;;;;26.39;100.00;102183.36;2008241;71;31329;-77
2022/07/11 14:00:32;;;;;;;11.50;10.95;;;;;;;27.08;100.00;102165.84;2000106;71;31847;-74
2022/07/11 14:06:17;;;;;;;11.78;11.10;;;;;;;26.28;100.00;102163.07;2015224;71;30992;-77
2022/07/11 14:12:04;;;;;;;10.90;10.40;;;;;;;26.95;100.00;102155.11;2004427;71;30820;-76
2022/07/11 14:17:49;;;;;;;11.45;10.95;;;;;;;27.10;100.00;102147.75;2013283;71;30973;-76
2022/07/11 14:23:34;;;;;;;11.50;11.00;;;;;;;28.39;100.00;102150.55;2004364;71;31845;-79
2022/07/11 14:29:19;;;;;;;11.38;10.88;;;;;;;28.88;100.00;102147.29;2009985;71;30985;-76
2022/07/11 14:35:04;;;;;;;10.58;10.18;;;;;;;28.03;100.00;102148.28;2017193;71;30985;-75
2022/07/11 14:40:48;;;;;;;9.95;9.45;;;;;;;28.24;100.00;102135.73;2013579;71;30930;-76
2022/07/11 14:46:33;;;;;;;9.98;9.48;;;;;;;27.98;100.00;102135.72;2013845;70;31822;-75
2022/07/11 14:52:19;;;;;;;10.75;10.23;;;;;;;27.01;100.00;102137.11;2009767;71;30959;-75
2022/07/11 14:58:04;;;;;;;10.95;10.30;;;;;;;26.78;100.00;102124.64;2003049;71;31444;-75
2022/07/11 15:03:49;;;;;;;11.40;10.90;;;;;;;26.82;100.00;102123.55;1991936;71;31893;-76
2022/07/11 15:15:36;;;;;;;10.60;10.13;;;;;;;27.91;100.00;102114.73;2017063;71;30879;-77
2022/07/11 15:21:20;;;;;;;11.28;10.65;;;;;;;26.89;100.00;102120.91;2015130;71;30897;-76
2022/07/11 15:27:06;;;;;;;10.50;10.00;;;;;;;26.78;100.00;102116.92;2013502;70;31347;-74
2022/07/11 15:32:50;;;;;;;10.80;10.30;;;;;;;27.22;100.00;102111.17;2018655;71;31836;-75
2022/07/11 15:38:33;;;;;;;11.68;11.08;;;;;;;26.73;100.00;102108.63;1995684;71;31889;-74
2022/07/11 15:44:17;;;;;;;11.15;10.65;;;;;;;27.32;100.00;102109.20;2001257;71;31431;-76
2022/07/11 15:50:04;;;;;;;10.80;10.25;;;;;;;27.23;100.00;102100.83;2013477;71;30880;-72
2022/07/11 15:55:49;;;;;;;11.50;10.98;;;;;;;26.87;100.00;102094.77;2018729;70;30887;-78
2022/07/11 16:01:34;;;;;;;11.80;11.08;;;;;;;27.66;100.00;102095.59;2000882;71;30880;-74
2022/07/11 16:07:19;;;;;;;11.78;11.10;;;;;;;26.91;100.00;102087.17;2000827;71;31453;-75
2022/07/11 16:13:04;;;;;;;12.07;11.45;;;;;;;26.54;100.00;102084.25;2017226;71;33323;-76
2022/07/11 16:18:49;;;;;;;12.55;11.80;;;;;;;27.75;100.00;102064.81;2017045;71;31010;-77
2022/07/11 16:24:33;;;;;;;11.93;11.33;;;;;;;27.10;100.00;102071.56;2008542;71;30934;-75
2022/07/11 16:30:18;;;;;;;11.80;11.20;;;;;;;27.86;100.00;102070.16;2004448;71;31946;-80
2022/07/11 16:36:02;;;;;;;11.57;11.05;;;;;;;27.10;100.00;102065.02;2006751;71;30971;-75
2022/07/11 16:47:51;;;;;;;12.00;11.40;;;;;;;27.79;100.00;102065.72;1999274;71;30881;-75
2022/07/11 16:53:36;;;;;;;11.20;10.78;;;;;;;28.05;100.00;102060.19;1991719;71;30915;-77
2022/07/11 16:59:21;;;;;;;10.63;10.18;;;;;;;27.81;100.00;102066.16;2015309;71;31534;-75
2022/07/11 17:05:07;;;;;;;11.38;10.80;;;;;;;27.89;100.00;102065.74;1937415;70;30867;-73
2022/07/11 17:10:52;;;;;;;11.22;10.72;;;;;;;28.02;100.00;102063.80;2015212;71;30983;-73
2022/07/11 17:16:40;;;;;;;10.05;9.65;;;;;;;27.42;100.00;102072.97;2018827;71;31344;-73
2022/07/11 17:22:24;;;;;;;10.32;9.93;;;;;;;27.64;100.00;102069.43;1995142;71;30879;-74
2022/07/11 17:28:08;;;;;;;11.60;11.00;;;;;;;27.34;100.00;102069.09;2008438;71;31303;-73
2022/07/11 17:33:53;;;;;;;11.70;11.20;;;;;;;27.63;100.00;102069.23;2002827;71;31796;-71
2022/07/11 17:39:38;;;;;;;11.43;10.82;;;;;;;28.16;100.00;102076.74;2015406;71;30987;-70
2022/07/11 17:45:22;;;;;;;11.03;10.32;;;;;;;27.77;100.00;102086.67;2018611;71;30883;-72
2022/07/11 17:51:07;;;;;;;11.85;11.25;;;;;;;27.87;100.00;102073.84;1992111;71;31317;-69
2022/07/11 17:56:52;;;;;;;11.57;10.78;;;;;;;27.59;100.00;102079.73;2018871;71;31431;-73
2022/07/11 18:02:37;;;;;;;11.50;10.90;;;;;;;27.69;100.00;102076.88;2008130;71;32011;-72
2022/07/11 18:08:22;;;;;;;11.90;11.10;;;;;;;27.60;100.00;102082.20;2005895;71;30906;-75
2022/07/11 18:14:08;;;;;;;10.70;10.23;;;;;;;27.61;100.00;102078.75;2015363;71;31403;-75
2022/07/11 18:19:56;;;;;;;11.43;10.82;;;;;;;27.37;100.00;102091.20;1995162;71;30957;-73
2022/07/11 18:25:41;;;;;;;10.88;10.38;;;;;;;27.76;100.00;102092.17;2012018;71;30824;-75
2022/07/11 18:31:26;;;;;;;10.85;10.45;;;;;;;27.16;100.00;102085.79;2015068;71;31007;-74
2022/07/11 18:37:11;;;;;;;10.23;9.73;;;;;;;27.85;100.00;102086.26;2012071;71;30805;-74
2022/07/11 18:42:55;;;;;;;10.45;10.00;;;;;;;27.70;100.00;102074.27;2012143;71;30831;-73
2022/07/11 18:48:40;;;;;;;10.80;10.40;;;;;;;27.40;100.00;102085.34;2011820;71;30907;-73
2022/07/11 18:54:24;;;;;;;10.72;10.23;;;;;;;27.06;100.00;102090.61;2004387;71;30977;-72
2022/07/11 19:00:12;;;;;;;10.00;9.60;;;;;;;27.23;100.00;102106.53;2011954;71;30806;-73
2022/07/11 19:05:57;;;;;;;10.18;9.75;;;;;;;27.06;100.00;102114.86;1991716;71;30897;-75
2022/07/11 19:11:43;;;;;;;10.93;10.32;;;;;;;27.13;100.00;102122.77;2007980;71;31203;-72
2022/07/11 19:17:28;;;;;;;10.63;10.23;;;;;;;27.01;100.00;102133.66;1997486;71;31944;-73
2022/07/11 19:23:12;;;;;;;10.40;9.90;;;;;;;26.98;100.00;102142.97;1997283;70;30844;-74
2022/07/11 19:28:57;;;;;;;10.45;9.85;;;;;;;26.94;100.00;102149.77;2011552;71;30871;-72
2022/07/11 19:34:41;;;;;;;10.82;10.30;;;;;;;26.90;100.00;102149.67;2000896;71;30962;-69
2022/07/11 19:40:25;;;;;;;9.85;9.45;;;;;;;26.91;100.00;102163.34;2013624;71;31335;-69
2022/07/11 19:46:10;;;;;;;11.25;10.25;;;;;;;26.94;100.00;102162.59;2006505;71;30822;-72
2022/07/11 19:51:57;;;;;;;10.43;10.00;;;;;;;26.69;100.00;102167.57;2011316;71;30880;-72
2022/07/11 19:57:41;;;;;;;10.50;10.00;;;;;;;26.52;100.00;102163.02;2011938;71;30943;-69
2022/07/11 20:03:30;;;;;;;10.18;9.78;;;;;;;26.36;100.00;102172.69;2009732;71;30877;-70
2022/07/11 20:09:16;;;;;;;10.30;9.90;;;;;;;26.28;100.00;102178.74;2008268;71;30834;-70
2022/07/11 20:15:01;;;;;;;9.35;9.05;;;;;;;26.33;100.00;102188.47;2011349;71;30864;-70
2022/07/11 20:20:47;;;;;;;10.40;9.60;;;;;;;26.12;100.00;102192.87;2006165;71;31358;-69
2022/07/11 20:26:31;;;;;;;8.88;8.48;;;;;;;26.09;100.00;102197.88;1998744;71;30886;-74
2022/07/11 20:32:15;;;;;;;9.08;8.70;;;;;;;26.13;100.00;102198.82;1989474;71;31928;-72
2022/07/11 20:38:00;;;;;;;9.80;9.40;;;;;;;26.01;100.00;102207.39;2007873;71;31365;-71
2022/07/11 20:43:48;;;;;;;9.80;9.40;;;;;;;26.10;100.00;102201.56;2011131;71;31905;-72
2022/07/11 20:49:36;;;;;;;10.63;10.13;;;;;;;26.10;100.00;102181.63;2015075;71;31524;-71
2022/07/11 20:55:21;;;;;;;9.80;9.40;;;;;;;25.53;100.00;102198.81;2003868;71;30945;-67
2022/07/11 21:01:06;;;;;;;9.70;9.30;;;;;;;25.10;100.00;102200.75;2011788;71;30802;-72
2022/07/11 21:06:50;;;;;;;9.83;9.43;;;;;;;25.02;100.00;102195.40;1991701;71;30814;-72
2022/07/11 21:12:35;;;;;;;10.23;9.73;;;;;;;24.65;100.00;102206.34;2013191;71;30882;-71
2022/07/11 21:18:21;;;;;;;10.32;9.78;;;;;;;24.18;100.00;102207.13;2015197;71;30944;-72
2022/07/11 21:24:06;;;;;;;10.20;9.65;;;;;;;23.37;100.00;102218.69;2009398;71;30861;-72
2022/07/11 21:29:53;;;;;;;10.13;9.63;;;;;;;23.45;100.00;102217.84;2013548;71;32686;-72
2022/07/11 21:35:37;;;;;;;10.10;9.43;;;;;;;23.16;100.00;102228.51;2004597;71;31426;-72
2022/07/11 21:41:22;;;;;;;10.63;10.03;;;;;;;23.27;100.00;102221.91;2004643;71;31370;-72
2022/07/11 21:47:06;;;;;;;10.38;9.73;;;;;;;23.05;100.00;102225.80;2009579;71;31088;-73
2022/07/11 21:52:51;;;;;;;10.10;9.60;;;;;;;22.64;100.00;102220.05;1994982;71;30986;-72
2022/07/11 21:58:36;;;;;;;10.70;10.10;;;;;;;22.23;100.00;102222.53;2006294;71;31030;-73
2022/07/11 22:04:20;;;;;;;11.12;10.63;;;;;;;21.49;100.00;102226.69;2013688;71;30832;-72
2022/07/11 22:10:06;;;;;;;10.90;10.40;;;;;;;21.25;100.00;102229.91;2001078;71;30829;-73
2022/07/11 22:15:51;;;;;;;10.80;10.30;;;;;;;21.38;100.00;102224.48;2009418;71;31461;-73
2022/07/11 22:21:36;;;;;;;11.10;10.60;;;;;;;21.50;100.00;102219.04;2010105;71;30886;-73
2022/07/11 22:27:29;;;;;;;10.93;10.37;;;;;;;21.88;100.00;102207.45;2003939;71;30942;-74
2022/07/11 22:33:13;;;;;;;11.30;10.75;;;;;;;21.76;100.00;102207.25;1951556;72;30997;-72
2022/07/11 22:38:58;;;;;;;12.98;12.28;;;;;;;21.65;100.00;102196.80;1991758;71;30871;-73
2022/07/11 22:44:42;;;;;;;12.70;12.13;;;;;;;21.36;100.00;102190.87;2007785;71;31032;-73
2022/07/11 22:50:26;;;;;;;12.90;12.40;;;;;;;21.35;100.00;102196.26;2013504;71;30885;-73
2022/07/11 22:56:11;;;;;;;13.80;13.00;;;;;;;21.47;100.00;102196.50;2015344;71;30936;-73
2022/07/11 23:01:55;;;;;;;11.90;11.40;;;;;;;21.55;100.00;102184.97;2006607;71;30901;-73
2022/07/11 23:07:40;;;;;;;13.70;13.00;;;;;;;21.62;100.00;102185.31;1995563;71;30833;-73
2022/07/11 23:13:26;;;;;;;19.03;18.03;;;;;;;21.11;100.00;102188.72;2001155;71;30988;-72
2022/07/11 23:19:10;;;;;;;23.70;22.27;;;;;;;20.72;100.00;102187.47;1999162;71;31084;-73
2022/07/11 23:24:54;;;;;;;23.07;21.63;;;;;;;20.71;100.00;102185.00;2011841;71;30993;-72
2022/07/11 23:30:38;;;;;;;21.83;20.73;;;;;;;20.82;100.00;102184.97;2000956;71;33391;-73
2022/07/11 23:36:21;;;;;;;21.27;20.10;;;;;;;20.90;100.00;102196.33;2004309;71;31520;-73
2022/07/11 23:42:06;;;;;;;20.83;19.73;;;;;;;21.29;100.00;102196.16;1995612;71;30953;-73
2022/07/11 23:47:51;;;;;;;18.90;18.00;;;;;;;21.27;100.00;102193.66;2009474;71;31530;-72
2022/07/11 23:50:19;;;;;;;19.90;18.70;;;;;;;;;;1985962;72;24189;-73
2022/07/11 23:55:55;;;;;;;21.50;20.40;;;;;;;21.24;100.00;102201.38;2061206;69;30608;-72
2022/07/11 23:58:26;;;;;;;22.37;21.17;;;;;;;21.07;100.00;102201.83;1942204;73;24289;-73
